Enochsburg, Indiana
Current Conditions -  °F | °C
As of 10:46 AM on Friday 21 Nov 2014 (Local Time) from KBAK Reporting Station
Clear Clear  
Wind Chill: 21°   Ceiling: Unl
Heat Index: 27°   Visibility: 10mi
Dew Point: 12°   Wind: 5mph
Humidity: 55%   Direction: 110°ESE
Pressure: 30.53"   Gusts: NA
Location:  39.3206°N, 85.4768°W
Report Text: KBAK 211546Z 11004KT 10SM SKC M03/M11 A3053
Loading
Personal Weather Stations






























Interactive Weather Map New forecast layout! Learn more

10-Day Weather Forecast

Advertisements
Track Severe Weather on mobile